createdAt,value
2018-09-11T00:00:57.105Z,4.60
2018-09-11T00:03:25.751Z,3.80
2018-09-11T00:05:57.356Z,3.95
2018-09-11T00:08:27.482Z,3.90
2018-09-11T00:10:57.909Z,4.25
2018-09-11T00:13:29.705Z,4.40
2018-09-11T00:16:01.400Z,3.97
2018-09-11T00:18:29.980Z,4.68
2018-09-11T00:21:00.122Z,4.10
2018-09-11T00:23:28.907Z,4.45
2018-09-11T00:25:59.482Z,4.25
2018-09-11T00:28:31.256Z,4.15
2018-09-11T00:30:59.934Z,4.32
2018-09-11T00:33:31.649Z,5.18
2018-09-11T00:36:00.415Z,5.55
2018-09-11T00:38:32.027Z,4.45
2018-09-11T00:41:02.310Z,4.68
2018-09-11T00:43:32.741Z,4.55
2018-09-11T00:46:02.875Z,4.12
2018-09-11T00:48:34.521Z,4.28
2018-09-11T00:51:04.768Z,4.30
2018-09-11T00:53:34.743Z,5.35
2018-09-11T00:56:06.559Z,5.53
2018-09-11T00:58:37.086Z,4.70
2018-09-11T01:01:07.221Z,5.15
2018-09-11T01:03:38.969Z,5.18
2018-09-11T01:06:09.531Z,5.22
2018-09-11T01:08:38.294Z,5.15
2018-09-11T01:11:10.050Z,5.53
2018-09-11T01:13:41.708Z,5.50
2018-09-11T01:16:12.498Z,5.30
2018-09-11T01:18:44.356Z,6.12
2018-09-11T01:21:14.788Z,5.78
2018-09-11T01:23:45.121Z,6.05
2018-09-11T01:26:13.737Z,5.65
2018-09-11T01:28:46.250Z,5.03
2018-09-11T01:31:18.473Z,5.45
2018-09-11T01:33:48.747Z,5.70
2018-09-11T01:36:17.405Z,5.20
2018-09-11T01:38:47.711Z,5.72
2018-09-11T01:41:16.388Z,5.50
2018-09-11T01:43:48.222Z,5.70
2018-09-11T01:46:20.269Z,5.32
2018-09-11T01:48:50.545Z,5.03
2018-09-11T01:51:22.405Z,5.62
2018-09-11T01:53:54.270Z,5.30
2018-09-11T01:56:25.138Z,5.37
2018-09-11T01:58:57.887Z,5.22
2018-09-11T02:01:29.323Z,5.40
2018-09-11T02:03:59.533Z,4.87
2018-09-11T02:06:28.164Z,5.12
2018-09-11T02:08:59.084Z,5.35
2018-09-11T02:11:30.645Z,5.45
2018-09-11T02:14:00.934Z,4.90
2018-09-11T02:16:31.136Z,5.40
2018-09-11T02:19:02.691Z,4.62
2018-09-11T02:21:34.414Z,5.07
2018-09-11T02:24:03.043Z,5.18
2018-09-11T02:26:34.970Z,5.03
2018-09-11T02:29:04.244Z,4.70
2018-09-11T02:31:36.185Z,5.40
2018-09-11T02:34:07.804Z,5.50
2018-09-11T02:36:36.546Z,4.93
2018-09-11T02:39:08.156Z,5.62
2018-09-11T02:41:38.337Z,5.97
2018-09-11T02:44:11.002Z,5.30
2018-09-11T02:46:43.268Z,5.32
2018-09-11T02:49:13.638Z,5.75
2018-09-11T02:51:42.309Z,5.15
2018-09-11T02:54:12.466Z,5.75
2018-09-11T02:56:42.923Z,5.65
2018-09-11T02:59:14.479Z,5.03
2018-09-11T03:01:46.273Z,5.90
2018-09-11T03:04:16.436Z,5.62
2018-09-11T03:06:47.153Z,6.85
2018-09-11T03:09:19.256Z,5.60
2018-09-11T03:11:50.999Z,5.90
2018-09-11T03:14:20.380Z,6.07
2018-09-11T03:16:51.119Z,6.32
2018-09-11T03:19:22.823Z,6.20
2018-09-11T03:21:52.919Z,5.95
2018-09-11T03:24:23.277Z,6.57
2018-09-11T03:26:54.885Z,6.30
2018-09-11T03:29:26.381Z,6.32
2018-09-11T03:31:56.680Z,6.97
2018-09-11T03:34:28.393Z,5.82
2018-09-11T03:36:57.016Z,6.75
2018-09-11T03:39:26.389Z,6.07
2018-09-11T03:41:56.555Z,6.57
2018-09-11T03:44:27.078Z,6.70
2018-09-11T03:46:57.528Z,6.95
2018-09-11T03:49:26.315Z,6.43
2018-09-11T03:51:57.963Z,5.75
2018-09-11T03:54:29.788Z,5.80
2018-09-11T03:56:59.980Z,7.25
2018-09-11T03:59:30.422Z,6.47
2018-09-11T04:01:59.084Z,6.03
2018-09-11T04:04:30.647Z,6.37
2018-09-11T04:07:01.028Z,6.35
2018-09-11T04:09:32.883Z,5.90
2018-09-11T04:12:03.677Z,6.50
2018-09-11T04:14:32.396Z,6.25
2018-09-11T04:17:04.102Z,6.25
2018-09-11T04:19:37.847Z,6.35
2018-09-11T04:22:07.058Z,7.07
2018-09-11T04:24:37.616Z,7.10
2018-09-11T04:27:07.914Z,6.87
2018-09-11T04:29:39.629Z,6.12
2018-09-11T04:32:10.443Z,6.35
2018-09-11T04:34:41.027Z,6.05
2018-09-11T04:37:11.240Z,6.37
2018-09-11T04:39:43.007Z,6.32
2018-09-11T04:42:14.692Z,7.70
2018-09-11T04:44:43.373Z,6.55
2018-09-11T04:47:13.755Z,6.72
2018-09-11T04:49:43.263Z,6.45
2018-09-11T04:52:13.717Z,6.62
2018-09-11T04:54:42.318Z,6.35
2018-09-11T04:57:14.187Z,7.62
2018-09-11T04:59:47.023Z,7.18
2018-09-11T05:02:17.329Z,6.72
2018-09-11T05:04:47.863Z,6.15
2018-09-11T05:07:18.260Z,6.20
2018-09-11T05:09:48.777Z,6.18
2018-09-11T05:12:20.237Z,5.40
2018-09-11T05:14:50.481Z,5.68
2018-09-11T05:17:20.796Z,5.97
2018-09-11T05:19:50.944Z,5.47
2018-09-11T05:22:22.595Z,5.43
2018-09-11T05:24:54.091Z,6.10
2018-09-11T05:27:24.565Z,5.70
2018-09-11T05:29:55.186Z,6.32
2018-09-11T05:32:25.452Z,6.75
2018-09-11T05:34:57.040Z,6.07
2018-09-11T05:37:27.237Z,5.03
2018-09-11T05:39:57.511Z,4.75
2018-09-11T05:42:30.326Z,5.47
2018-09-11T05:45:02.102Z,5.37
2018-09-11T05:47:32.233Z,4.95
2018-09-11T05:50:04.072Z,4.97
2018-09-11T05:52:34.269Z,4.93
2018-09-11T05:55:04.459Z,5.00
2018-09-11T05:57:34.533Z,5.10
2018-09-11T06:00:06.140Z,4.82
2018-09-11T06:02:37.751Z,5.30
2018-09-11T06:05:09.351Z,5.35
2018-09-11T06:07:41.201Z,5.12
2018-09-11T06:10:11.605Z,5.15
2018-09-11T06:12:41.840Z,4.40
2018-09-11T06:15:11.912Z,4.75
2018-09-11T06:17:40.626Z,4.87
2018-09-11T06:20:10.784Z,5.07
2018-09-11T06:22:42.659Z,5.53
2018-09-11T06:25:12.852Z,5.00
2018-09-11T06:27:44.440Z,5.90
2018-09-11T06:30:16.092Z,5.30
2018-09-11T06:32:46.452Z,5.55
2018-09-11T06:35:15.228Z,5.80
2018-09-11T06:37:43.810Z,7.03
2018-09-11T06:40:15.521Z,4.87
2018-09-11T06:42:47.576Z,5.25
2018-09-11T06:45:17.635Z,6.10
2018-09-11T06:47:49.523Z,5.82
2018-09-11T06:50:20.872Z,5.72
2018-09-11T06:52:52.442Z,5.78
2018-09-11T06:55:21.134Z,5.37
2018-09-11T06:57:49.892Z,5.90
2018-09-11T07:00:20.801Z,5.07
2018-09-11T07:02:52.702Z,5.68
2018-09-11T07:05:24.424Z,4.65
2018-09-11T07:07:56.053Z,5.80
2018-09-11T07:10:27.944Z,6.20
2018-09-11T07:12:59.796Z,5.72
2018-09-11T07:15:29.976Z,5.20
2018-09-11T07:18:01.757Z,5.18
2018-09-11T07:20:31.995Z,5.55
2018-09-11T07:23:03.674Z,6.03
2018-09-11T07:25:35.343Z,4.97
2018-09-11T07:28:07.193Z,5.15
2018-09-11T07:30:35.800Z,5.32
2018-09-11T07:33:07.531Z,5.32
2018-09-11T07:35:36.323Z,5.22
2018-09-11T07:38:08.316Z,5.07
2018-09-11T07:40:36.950Z,4.80
2018-09-11T07:43:08.527Z,5.85
2018-09-11T07:45:40.350Z,5.45
2018-09-11T07:48:10.621Z,5.35
2018-09-11T07:50:40.932Z,6.07
2018-09-11T07:53:12.479Z,5.75
2018-09-11T07:55:42.584Z,5.78
2018-09-11T07:58:11.930Z,6.18
2018-09-11T08:00:42.094Z,5.65
2018-09-11T08:03:12.258Z,5.78
2018-09-11T08:05:42.831Z,5.37
2018-09-11T08:08:12.868Z,5.20
2018-09-11T08:10:43.059Z,5.43
2018-09-11T08:13:13.211Z,4.68
2018-09-11T08:15:42.481Z,5.10
2018-09-11T08:18:12.528Z,4.80
2018-09-11T08:20:42.720Z,3.78
2018-09-11T08:23:12.826Z,3.95
2018-09-11T08:25:44.367Z,4.07
2018-09-11T08:28:14.497Z,4.62
2018-09-11T08:30:44.561Z,3.55
2018-09-11T08:33:13.190Z,4.00
2018-09-11T08:35:44.820Z,3.53
2018-09-11T08:38:14.477Z,3.85
2018-09-11T08:40:44.274Z,3.70
2018-09-11T08:43:13.244Z,3.50
2018-09-11T08:45:44.149Z,3.12
2018-09-11T08:48:15.728Z,3.40
2018-09-11T08:50:46.409Z,3.42
2018-09-11T08:53:18.187Z,3.53
2018-09-11T08:55:49.698Z,3.03
2018-09-11T08:58:18.467Z,2.95
2018-09-11T09:00:50.344Z,3.72
2018-09-11T09:03:22.133Z,4.10
2018-09-11T09:05:50.714Z,3.65
2018-09-11T09:08:22.240Z,3.85
2018-09-11T09:10:52.947Z,3.70
2018-09-11T09:13:23.431Z,3.53
2018-09-11T09:15:52.067Z,3.20
2018-09-11T09:18:22.136Z,3.33
2018-09-11T09:20:52.544Z,3.62
2018-09-11T09:23:22.641Z,3.45
2018-09-11T09:25:52.714Z,3.30
2018-09-11T09:28:21.377Z,3.05
2018-09-11T09:30:50.039Z,3.87
2018-09-11T09:33:20.402Z,3.05
2018-09-11T09:35:52.848Z,3.45
2018-09-11T09:38:22.045Z,3.72
2018-09-11T09:40:53.844Z,3.30
2018-09-11T09:43:24.221Z,3.60
2018-09-11T09:45:54.529Z,3.50
2018-09-11T09:48:25.078Z,3.55
2018-09-11T09:50:56.957Z,3.50
2018-09-11T09:53:25.702Z,3.28
2018-09-11T09:55:56.369Z,3.45
2018-09-11T09:58:29.082Z,3.40
2018-09-11T10:01:17.452Z,3.15
2018-09-11T10:03:46.062Z,3.67
2018-09-11T10:06:16.894Z,3.97
2018-09-11T10:08:46.001Z,3.80
2018-09-11T10:11:16.607Z,3.80
2018-09-11T10:13:46.721Z,3.92
2018-09-11T10:16:18.622Z,3.83
2018-09-11T10:18:50.198Z,3.83
2018-09-11T10:21:20.875Z,3.75
2018-09-11T10:23:52.411Z,3.97
2018-09-11T10:26:21.984Z,3.47
2018-09-11T10:28:52.705Z,3.10
2018-09-11T10:31:25.198Z,3.87
2018-09-11T10:33:53.979Z,3.28
2018-09-11T10:36:24.190Z,4.15
2018-09-11T10:38:55.735Z,3.58
2018-09-11T10:41:25.737Z,4.20
2018-09-11T10:43:54.347Z,4.05
2018-09-11T10:46:24.970Z,3.42
2018-09-11T10:48:55.161Z,3.37
2018-09-11T10:51:24.292Z,3.60
2018-09-11T10:53:54.495Z,3.33
2018-09-11T10:56:24.746Z,3.67
2018-09-11T10:58:56.558Z,3.87
2018-09-11T11:01:25.251Z,3.72
2018-09-11T11:03:53.821Z,3.92
2018-09-11T11:06:25.867Z,3.92
2018-09-11T11:08:56.148Z,4.05
2018-09-11T11:11:26.241Z,4.55
2018-09-11T11:13:56.192Z,4.25
2018-09-11T11:16:24.948Z,4.60
2018-09-11T11:18:56.818Z,3.97
2018-09-11T11:21:28.556Z,4.12
2018-09-11T11:23:59.268Z,4.20
2018-09-11T11:26:31.100Z,4.70
2018-09-11T11:29:01.568Z,3.80
2018-09-11T11:31:31.806Z,3.60
2018-09-11T11:34:02.114Z,3.60
2018-09-11T11:36:34.019Z,3.53
2018-09-11T11:39:04.513Z,4.12
2018-09-11T11:41:36.246Z,3.80
2018-09-11T11:44:06.377Z,3.83
2018-09-11T11:46:36.537Z,4.03
2018-09-11T11:49:06.690Z,3.65
2018-09-11T11:51:36.833Z,3.75
2018-09-11T11:54:05.506Z,4.50
2018-09-11T11:56:34.736Z,3.95
2018-09-11T11:59:03.853Z,3.40
2018-09-11T12:01:35.619Z,3.37
2018-09-11T12:04:04.155Z,3.10
2018-09-11T12:06:34.515Z,3.03
2018-09-11T12:09:06.067Z,3.90
2018-09-11T12:11:34.820Z,3.15
2018-09-11T12:14:06.567Z,3.55
2018-09-11T12:16:35.393Z,3.28
2018-09-11T12:19:05.526Z,3.00
2018-09-11T12:21:37.019Z,3.15
2018-09-11T12:24:05.754Z,3.40
2018-09-11T12:26:36.942Z,3.75
2018-09-11T12:29:07.027Z,3.80
2018-09-11T12:31:37.199Z,3.53
2018-09-11T12:34:07.473Z,2.65
2018-09-11T12:36:38.897Z,3.15
2018-09-11T12:39:10.563Z,3.42
2018-09-11T12:41:40.806Z,3.92
2018-09-11T12:44:09.297Z,2.70
2018-09-11T12:46:39.963Z,2.67
2018-09-11T12:49:09.986Z,2.90
2018-09-11T12:51:37.860Z,3.03
2018-09-11T12:54:08.603Z,2.80
2018-09-11T12:56:37.677Z,3.20
2018-09-11T12:59:09.291Z,2.72
2018-09-11T13:01:38.349Z,4.03
2018-09-11T13:04:09.001Z,4.05
2018-09-11T13:06:37.553Z,4.10
2018-09-11T13:09:10.626Z,3.58
2018-09-11T13:11:42.311Z,3.05
2018-09-11T13:14:12.543Z,3.53
2018-09-11T13:16:41.307Z,3.65
2018-09-11T13:19:11.369Z,2.67
2018-09-11T13:21:41.617Z,2.62
2018-09-11T13:24:12.000Z,3.00
2018-09-11T13:26:40.563Z,2.85
2018-09-11T13:29:10.651Z,2.85
2018-09-11T13:31:42.519Z,2.67
2018-09-11T13:34:13.215Z,2.78
2018-09-11T13:36:44.662Z,3.17
2018-09-11T13:39:15.491Z,3.47
2018-09-11T13:41:47.202Z,3.15
2018-09-11T13:44:17.409Z,3.72
2018-09-11T13:46:48.343Z,2.75
2018-09-11T13:49:18.480Z,2.62
2018-09-11T13:51:48.570Z,2.53
2018-09-11T13:54:20.759Z,2.70
2018-09-11T13:56:51.069Z,2.92
2018-09-11T13:59:19.789Z,3.08
2018-09-11T14:01:50.075Z,3.50
2018-09-11T14:04:20.385Z,2.97
2018-09-11T14:06:49.029Z,3.10
2018-09-11T14:09:19.467Z,3.05
2018-09-11T14:11:49.648Z,3.65
2018-09-11T14:14:19.893Z,3.00
2018-09-11T14:16:48.512Z,2.53
2018-09-11T14:19:18.687Z,2.83
2018-09-11T14:21:47.325Z,2.75
2018-09-11T14:24:19.715Z,3.00
2018-09-11T14:26:50.087Z,2.78
2018-09-11T14:29:18.684Z,3.00
2018-09-11T14:31:48.906Z,3.45
2018-09-11T14:34:21.603Z,3.15
2018-09-11T14:36:53.394Z,3.25
2018-09-11T14:39:23.845Z,2.80
2018-09-11T14:41:54.058Z,2.60
2018-09-11T14:44:24.352Z,2.78
2018-09-11T14:46:54.494Z,3.03
2018-09-11T14:49:26.125Z,2.33
2018-09-11T14:51:57.825Z,2.42
2018-09-11T14:54:29.483Z,2.22
2018-09-11T14:57:00.034Z,2.58
2018-09-11T14:59:29.152Z,2.37
2018-09-11T15:01:59.261Z,2.92
2018-09-11T15:04:27.381Z,2.50
2018-09-11T15:06:57.657Z,2.60
2018-09-11T15:09:27.772Z,2.60
2018-09-11T15:11:57.215Z,2.92
2018-09-11T15:14:27.580Z,2.87
2018-09-11T15:16:57.756Z,2.65
2018-09-11T15:19:29.586Z,2.33
2018-09-11T15:21:58.544Z,3.05
2018-09-11T15:24:30.258Z,2.92
2018-09-11T15:27:00.487Z,3.15
2018-09-11T15:29:32.248Z,2.70
2018-09-11T15:32:02.392Z,2.65
2018-09-11T15:34:32.569Z,2.92
2018-09-11T15:37:04.438Z,3.37
2018-09-11T15:39:34.825Z,3.67
2018-09-11T15:42:04.997Z,2.78
2018-09-11T15:44:35.328Z,2.75
2018-09-11T15:47:04.003Z,2.85
2018-09-11T15:49:32.603Z,3.30
2018-09-11T15:52:00.491Z,2.85
2018-09-11T15:54:30.845Z,3.03
2018-09-11T15:57:01.126Z,3.30
2018-09-11T15:59:33.004Z,3.17
2018-09-11T16:02:01.696Z,3.42
2018-09-11T16:04:31.715Z,3.00
2018-09-11T16:07:03.648Z,3.10
2018-09-11T16:09:35.215Z,3.15
2018-09-11T16:12:05.358Z,3.08
2018-09-11T16:14:36.916Z,3.25
2018-09-11T16:17:07.309Z,3.30
2018-09-11T16:19:37.457Z,2.87
2018-09-11T16:22:09.246Z,2.85
2018-09-11T16:24:40.766Z,3.12
2018-09-11T16:27:10.662Z,3.35
2018-09-11T16:29:41.270Z,2.90
2018-09-11T16:32:11.518Z,3.05
2018-09-11T16:34:41.796Z,3.30
2018-09-11T16:37:10.438Z,3.22
2018-09-11T16:39:39.045Z,3.30
2018-09-11T16:42:09.283Z,3.40
2018-09-11T16:44:39.630Z,3.50
2018-09-11T16:47:09.945Z,3.53
2018-09-11T16:49:38.565Z,3.03
2018-09-11T16:52:10.414Z,3.35
2018-09-11T16:54:39.030Z,3.72
2018-09-11T16:57:08.749Z,3.00
2018-09-11T16:59:39.091Z,3.30
2018-09-11T17:02:11.088Z,2.90
2018-09-11T17:04:40.108Z,3.30
2018-09-11T17:07:10.364Z,2.87
2018-09-11T17:09:39.043Z,3.25
2018-09-11T17:12:09.164Z,3.47
2018-09-11T17:14:39.452Z,3.10
2018-09-11T17:17:07.962Z,3.55
2018-09-11T17:19:39.181Z,3.55
2018-09-11T17:22:10.888Z,2.90
2018-09-11T17:24:41.312Z,3.60
2018-09-11T17:27:11.649Z,3.85
2018-09-11T17:29:43.193Z,3.28
2018-09-11T17:32:13.341Z,4.03
2018-09-11T17:34:42.673Z,3.17
2018-09-11T17:37:14.420Z,3.83
2018-09-11T17:39:44.539Z,3.45
2018-09-11T17:42:16.213Z,4.40
2018-09-11T17:44:47.982Z,3.62
2018-09-11T17:47:19.709Z,3.97
2018-09-11T17:49:49.837Z,3.87
2018-09-11T17:52:18.722Z,4.32
2018-09-11T17:54:48.828Z,3.55
2018-09-11T17:57:18.947Z,4.25
2018-09-11T17:59:49.097Z,3.72
2018-09-11T18:02:21.132Z,4.68
2018-09-11T18:04:50.377Z,4.55
2018-09-11T18:07:20.655Z,4.47
2018-09-11T18:09:52.294Z,4.85
2018-09-11T18:12:22.292Z,4.28
2018-09-11T18:14:52.969Z,4.87
2018-09-11T18:17:24.490Z,5.18
2018-09-11T18:19:54.805Z,5.50
2018-09-11T18:22:24.924Z,5.75
2018-09-11T18:24:55.034Z,5.37
2018-09-11T18:27:26.092Z,5.62
2018-09-11T18:29:55.839Z,5.70
2018-09-11T18:32:27.578Z,5.43
2018-09-11T18:34:57.694Z,5.82
2018-09-11T18:37:26.196Z,5.28
2018-09-11T18:39:56.188Z,6.43
2018-09-11T18:42:26.633Z,5.87
2018-09-11T18:44:55.578Z,5.50
2018-09-11T18:47:27.804Z,5.87
2018-09-11T18:49:56.389Z,6.28
2018-09-11T18:52:26.804Z,5.70
2018-09-11T18:54:56.133Z,6.18
2018-09-11T18:57:27.955Z,5.72
2018-09-11T18:59:59.448Z,5.95
2018-09-11T19:02:29.589Z,6.55
2018-09-11T19:04:59.714Z,6.65
2018-09-11T19:07:29.855Z,6.12
2018-09-11T19:10:01.516Z,6.55
2018-09-11T19:12:33.150Z,7.57
2018-09-11T19:15:02.455Z,6.87
2018-09-11T19:17:32.619Z,6.62
2018-09-11T19:20:02.974Z,7.30
2018-09-11T19:22:33.025Z,6.60
2018-09-11T19:25:04.748Z,7.40
2018-09-11T19:27:35.009Z,7.93
2018-09-11T19:30:05.217Z,7.00
2018-09-11T19:32:37.141Z,7.37
2018-09-11T19:35:05.980Z,8.07
2018-09-11T19:37:36.182Z,7.40
2018-09-11T19:40:06.313Z,8.68
2018-09-11T19:42:37.973Z,7.68
2018-09-11T19:45:09.952Z,7.78
2018-09-11T19:47:40.179Z,7.30
2018-09-11T19:50:11.946Z,6.93
2018-09-11T19:52:43.373Z,7.70
2018-09-11T19:55:15.054Z,7.75
2018-09-11T19:57:43.840Z,8.25
2018-09-11T20:00:14.019Z,7.68
2018-09-11T20:02:44.169Z,7.95
2018-09-11T20:05:15.730Z,8.00
2018-09-11T20:07:45.890Z,8.20
2018-09-11T20:10:15.883Z,7.70
2018-09-11T20:12:44.489Z,7.90
2018-09-11T20:15:16.386Z,8.13
2018-09-11T20:17:47.973Z,7.68
2018-09-11T20:20:19.659Z,8.55
2018-09-11T20:22:49.814Z,7.25
2018-09-11T20:25:21.538Z,8.70
2018-09-11T20:27:53.278Z,8.60
2018-09-11T20:30:23.386Z,8.07
2018-09-11T20:32:54.905Z,8.77
2018-09-11T20:35:25.071Z,8.20
2018-09-11T20:37:55.299Z,9.18
2018-09-11T20:40:26.929Z,8.73
2018-09-11T20:42:55.528Z,9.63
2018-09-11T20:45:25.706Z,8.57
2018-09-11T20:47:54.616Z,8.73
2018-09-11T20:50:26.291Z,9.80
2018-09-11T20:52:56.572Z,8.85
2018-09-11T20:55:26.782Z,8.23
2018-09-11T20:57:58.507Z,8.82
2018-09-11T21:00:28.814Z,9.25
2018-09-11T21:03:00.391Z,8.95
2018-09-11T21:05:28.988Z,9.32
2018-09-11T21:07:59.055Z,8.57
2018-09-11T21:10:30.642Z,8.98
2018-09-11T21:13:01.278Z,8.50
2018-09-11T21:15:31.712Z,9.43
2018-09-11T21:17:59.787Z,9.02
2018-09-11T21:20:29.888Z,9.95
2018-09-11T21:23:00.191Z,9.85
2018-09-11T21:25:30.855Z,10.85
2018-09-11T21:27:59.499Z,9.43
2018-09-11T21:30:29.672Z,9.05
2018-09-11T21:32:59.830Z,8.77
2018-09-11T21:35:30.427Z,9.52
2018-09-11T21:38:00.578Z,9.13
2018-09-11T21:40:29.207Z,9.35
2018-09-11T21:42:59.049Z,9.40
2018-09-11T21:45:29.434Z,9.77
2018-09-11T21:47:58.052Z,9.73
2018-09-11T21:50:29.754Z,8.27
2018-09-11T21:53:01.423Z,9.05
2018-09-11T21:55:29.987Z,9.10
2018-09-11T21:58:00.392Z,8.27
2018-09-11T22:00:31.091Z,8.95
2018-09-11T22:03:06.458Z,9.23
2018-09-11T22:05:36.861Z,9.30
2018-09-11T22:08:05.441Z,8.40
2018-09-11T22:10:37.090Z,8.35
2018-09-11T22:13:07.759Z,8.95
2018-09-11T22:15:37.949Z,8.90
2018-09-11T22:18:08.002Z,8.88
2018-09-11T22:20:39.631Z,9.70
2018-09-11T22:23:09.779Z,10.07
2018-09-11T22:25:40.162Z,10.73
2018-09-11T22:28:08.815Z,10.88
2018-09-11T22:30:38.984Z,11.10
2018-09-11T22:33:09.446Z,10.70
2018-09-11T22:35:41.071Z,10.77
2018-09-11T22:38:13.205Z,10.60
2018-09-11T22:40:44.859Z,11.20
2018-09-11T22:43:15.055Z,10.75
2018-09-11T22:45:45.463Z,10.48
2018-09-11T22:48:17.378Z,10.00
2018-09-11T22:50:49.030Z,10.00
2018-09-11T22:53:17.626Z,9.65
2018-09-11T22:55:47.828Z,9.82
2018-09-11T22:58:18.082Z,10.48
2018-09-11T23:00:49.639Z,9.55
2018-09-11T23:03:18.202Z,10.07
2018-09-11T23:05:48.306Z,9.80
2018-09-11T23:08:20.012Z,10.35
2018-09-11T23:10:50.037Z,11.68
2018-09-11T23:13:20.394Z,11.23
2018-09-11T23:15:50.526Z,10.90
2018-09-11T23:18:21.057Z,11.23
2018-09-11T23:20:52.564Z,10.77
2018-09-11T23:23:22.716Z,10.40
2018-09-11T23:25:51.888Z,9.77
2018-09-11T23:28:20.641Z,10.40
2018-09-11T23:30:53.273Z,9.93
2018-09-11T23:33:23.419Z,10.43
2018-09-11T23:35:53.749Z,10.02
2018-09-11T23:38:23.843Z,9.55
2018-09-11T23:40:55.414Z,9.60
2018-09-11T23:43:25.790Z,10.82
2018-09-11T23:45:57.363Z,10.07
2018-09-11T23:48:27.531Z,9.50
2018-09-11T23:50:58.194Z,10.70
2018-09-11T23:53:28.305Z,9.23
2018-09-11T23:56:00.175Z,9.25
2018-09-11T23:58:30.657Z,8.57
